Data for 01/31/2006

Time Sea-Level Adjusted Pressure Absolute Pressure Temperature Relative Humidity Dew Point   
(mb) (inHg) (mb) (inHg) (C) (F) (%) (C) (F)
00:05 1009 29.8 838 24.75 1.5 34.7 86 -0.6 30.9
00:10 1009 29.8 838 24.75 1.7 35.1 87 -0.3 31.5
00:15 1009 29.8 838 24.75 1.5 34.7 89 -0.1 31.8
00:20 1009 29.8 838 24.75 1.3 34.3 90 -0.2 31.6
00:25 1009 29.8 838 24.75 1.4 34.6 88 -0.3 31.5
00:30 1009 29.8 838 24.75 1.6 35 88 -0.2 31.7
00:35 1009 29.8 838 24.75 1.5 34.7 89 -0.1 31.8
00:40 1009 29.8 838 24.75 1.4 34.5 90 -0.2 31.7
00:45 1009 29.8 838 24.75 1.2 34.2 89 -0.3 31.4
00:50 1009 29.8 838 24.75 1.2 34.2 89 -0.4 31.3
00:55 1009 29.8 838 24.75 1.4 34.4 87 -0.6 31
01:00 1009 29.8 838 24.75 1.6 34.9 87 -0.2 31.6
01:05 1009 29.8 838 24.75 1.6 34.9 86 -0.4 31.2
01:10 1009 29.8 838 24.75 1.7 35 86 -0.5 31.1
01:15 1009 29.8 838 24.75 1.8 35.2 84 -0.6 30.9
01:20 1009 29.8 838 24.75 2 35.6 84 -0.4 31.2
01:25 1009 29.8 838 24.75 2 35.6 83 -0.5 31.1
01:30 1009 29.8 838 24.75 1.9 35.4 86 -0.3 31.5
01:35 1009 29.8 838 24.75 1.7 35.1 84 -0.7 30.8
01:40 1009 29.8 838 24.75 1.8 35.2 83 -0.8 30.5
01:45 1009 29.8 838 24.75 1.9 35.5 83 -0.7 30.8
01:50 1009 29.8 838 24.75 2 35.5 83 -0.7 30.7
01:55 1009 29.8 838 24.75 2 35.5 81 -0.9 30.3
02:00 1009 29.8 838 24.75 2 35.6 81 -0.9 30.4
02:05 1009 29.8 838 24.75 2 35.6 78 -1.5 29.3
02:10 1009 29.8 838 24.75 2 35.6 75 -1.9 28.6
02:15 1009 29.8 838 24.75 2 35.7 75 -1.9 28.6
02:20 1009 29.8 838 24.75 1.9 35.5 76 -1.9 28.6
02:25 1009 29.8 838 24.75 1.8 35.2 77 -1.9 28.6
02:30 1009 29.8 838 24.75 1.7 35.1 77 -2 28.4
02:35 1009 29.8 838 24.75 1.7 35 77 -2 28.4
02:40 1009 29.8 838 24.75 1.7 35.1 76 -2 28.4
02:45 1009 29.8 838 24.75 1.7 35 77 -1.9 28.6
02:50 1009 29.8 838 24.75 1.5 34.8 79 -1.7 28.9
02:55 1009 29.8 838 24.75 1.1 34 82 -1.6 29.1
03:00 1009 29.8 838 24.75 1 33.8 82 -1.7 28.9
03:05 1009 29.8 838 24.75 1.1 34 82 -1.7 29
03:10 1009 29.8 838 24.75 1.1 33.9 83 -1.6 29.1
03:15 1009 29.8 838 24.75 0.9 33.7 83 -1.6 29.1
03:20 1009 29.8 838 24.75 0.9 33.6 83 -1.6 29.1
03:25 1009 29.8 838 24.75 0.8 33.5 82 -1.9 28.6
03:30 1009 29.8 839 24.78 0.9 33.5 82 -1.9 28.6
03:35 1009 29.8 839 24.78 0.9 33.6 81 -1.9 28.5
03:40 1009 29.8 839 24.78 0.9 33.7 80 -2.1 28.2
03:45 1009 29.8 839 24.78 1 33.7 81 -1.9 28.5
03:50 1009 29.8 839 24.78 0.9 33.6 81 -2 28.4
03:55 1010 29.83 839 24.78 0.8 33.5 81 -2.1 28.3
04:00 1010 29.83 839 24.78 0.8 33.4 81 -2.1 28.2
04:05 1010 29.83 839 24.78 0.7 33.3 81 -2.2 28
04:10 1010 29.83 839 24.78 0.4 32.8 81 -2.5 27.6
04:15 1010 29.83 839 24.78 0.5 32.8 80 -2.6 27.4
04:20 1010 29.83 839 24.78 0.5 32.9 80 -2.5 27.5
04:25 1010 29.83 839 24.78 0.5 32.8 81 -2.4 27.8
04:30 1010 29.83 839 24.78 0.4 32.7 82 -2.3 27.8
04:35 1010 29.83 839 24.78 0.2 32.4 82 -2.5 27.5
04:40 1010 29.83 839 24.78 0.2 32.4 81 -2.7 27.2
04:45 1010 29.83 839 24.78 0.3 32.6 78 -3 26.5
04:50 1010 29.83 839 24.78 0.5 32.9 76 -3.3 26.1
04:55 1010 29.83 840 24.81 0.7 33.3 72 -3.9 25.1
05:00 1011 29.85 840 24.81 1.1 33.9 68 -4.3 24.3
05:05 1011 29.85 840 24.81 1.2 34.2 66 -4.5 23.9
05:10 1011 29.85 840 24.81 1.3 34.3 65 -4.6 23.7
05:15 1011 29.85 840 24.81 1.3 34.3 66 -4.5 24
05:20 1011 29.85 840 24.81 1.2 34.1 64 -4.8 23.3
05:25 1011 29.85 840 24.81 1.1 34 67 -4.3 24.2
05:30 1011 29.85 840 24.81 0.7 33.2 77 -2.9 26.9
05:35 1011 29.85 840 24.81 0 32.1 75 -3.8 25.1
05:40 1011 29.85 841 24.83 0.2 32.4 73 -4 24.7
05:45 1012 29.88 841 24.83 0.3 32.6 72 -4.2 24.5
05:50 1012 29.88 841 24.83 0.3 32.6 70 -4.5 23.9
05:55 1012 29.88 841 24.83 0.1 32.3 71 -4.5 24
06:00 1012 29.88 841 24.83 -0.1 31.9 73 -4.4 24.1
06:05 1012 29.88 841 24.83 -0.1 31.8 72 -4.6 23.7
06:10 1012 29.88 841 24.83 -0.1 31.8 74 -4.3 24.3
06:15 1012 29.88 841 24.83 -0.3 31.5 75 -4.1 24.5
06:20 1012 29.88 841 24.83 -0.6 31 76 -4.3 24.2
06:25 1012 29.88 841 24.83 -0.6 30.9 73 -4.9 23.2
06:30 1012 29.88 841 24.83 -0.6 31 71 -5.2 22.6
06:35 1012 29.88 841 24.83 -0.6 31 69 -5.5 22.1
06:40 1012 29.88 841 24.83 -0.6 31 67 -6 21.2
06:45 1012 29.88 842 24.86 -0.6 30.9 65 -6.4 20.4
06:50 1012 29.88 842 24.86 -0.6 30.9 63 -6.9 19.6
06:55 1013 29.91 842 24.86 -0.7 30.8 62 -7.1 19.2
07:00 1013 29.91 842 24.86 -0.7 30.7 60 -7.5 18.5
07:05 1013 29.91 842 24.86 -0.9 30.5 61 -7.4 18.6
07:10 1013 29.91 842 24.86 -1 30.2 61 -7.5 18.5
07:15 1013 29.91 842 24.86 -1.2 29.8 58 -8.5 16.6
07:20 1013 29.91 842 24.86 -1.2 29.8 56 -8.9 15.9
07:25 1013 29.91 842 24.86 -1.1 30 55 -9.1 15.6
07:30 1013 29.91 842 24.86 -1.1 29.9 54 -9.3 15.2
07:35 1013 29.91 842 24.86 -1.3 29.7 57 -8.8 16.1
07:40 1013 29.91 842 24.86 -1.3 29.6 55 -9.3 15.3
07:45 1013 29.91 842 24.86 -1.2 29.9 54 -9.4 15.1
07:50 1013 29.91 842 24.86 -1.1 30.1 53 -9.5 14.9
07:55 1013 29.91 842 24.86 -1 30.3 54 -9.2 15.5
08:00 1013 29.91 842 24.86 -1.1 30 56 -8.8 16.1
08:05 1013 29.91 842 24.86 -1.2 29.8 56 -8.8 16.1
08:10 1013 29.91 842 24.86 -1.1 30 56 -8.9 16
08:15 1013 29.91 842 24.86 -1.1 30 55 -8.9 15.9
08:20 1013 29.91 842 24.86 -0.9 30.3 55 -8.8 16.2
08:25 1013 29.91 843 24.89 -0.9 30.4 54 -9 15.8
08:30 1013 29.91 843 24.89 -0.6 31 53 -8.9 15.9
08:35 1013 29.91 843 24.89 -0.5 31.2 52 -9.2 15.4
08:40 1013 29.91 843 24.89 -0.4 31.3 51 -9.4 15.1
08:45 1013 29.91 843 24.89 -0.2 31.7 49 -9.7 14.6
08:50 1014 29.94 843 24.89 -0.1 31.9 48 -9.9 14.2
08:55 1014 29.94 843 24.89 0.2 32.3 46 -10.1 13.7
09:00 1014 29.94 843 24.89 0.3 32.6 47 -9.7 14.5
09:05 1014 29.94 843 24.89 0.7 33.2 45 -10.1 13.9
09:10 1014 29.94 843 24.89 0.6 33 47 -9.6 14.7
09:15 1014 29.94 843 24.89 0.2 32.4 50 -9.1 15.7
09:20 1014 29.94 843 24.89 0 32 51 -8.8 16.1
09:25 1014 29.94 843 24.89 0.3 32.5 50 -8.9 15.9
09:30 1014 29.94 843 24.89 0.4 32.6 50 -8.9 16
09:35 1014 29.94 843 24.89 0.4 32.7 50 -8.8 16.2
09:40 1014 29.94 843 24.89 0.6 33 49 -8.9 16.1
09:45 1014 29.94 843 24.89 0.8 33.5 49 -8.8 16.2
09:50 1014 29.94 843 24.89 1 33.9 49 -8.6 16.6
09:55 1014 29.94 843 24.89 1.2 34.2 47 -8.8 16.2
10:00 1014 29.94 843 24.89 1.7 35.1 45 -8.9 16
10:05 1014 29.94 843 24.89 1.9 35.5 47 -8.2 17.3
10:10 1014 29.94 843 24.89 2.2 35.9 47 -8.1 17.4
10:15 1014 29.94 843 24.89 2.4 36.3 48 -7.5 18.4
10:20 1014 29.94 843 24.89 2.3 36.1 51 -6.9 19.5
10:25 1014 29.94 843 24.89 2.4 36.4 49 -7.2 19
10:30 1014 29.94 844 24.92 2.3 36.2 49 -7.3 18.8
10:35 1014 29.94 844 24.92 2.9 37.2 45 -7.8 17.9
10:40 1014 29.94 844 24.92 3.6 38.5 44 -7.5 18.6
10:45 1014 29.94 844 24.92 3.3 37.9 46 -7.4 18.8
10:50 1014 29.94 844 24.92 2.5 36.6 48 -7.4 18.7
10:55 1014 29.94 844 24.92 2.6 36.7 46 -7.9 17.8
11:00 1014 29.94 844 24.92 2.6 36.6 47 -7.6 18.2
11:05 1014 29.94 844 24.92 2.7 36.9 48 -7.1 19.2
11:10 1014 29.94 844 24.92 3 37.4 46 -7.4 18.7
11:15 1015 29.97 844 24.92 3.2 37.7 47 -7 19.4
11:20 1015 29.97 844 24.92 3.1 37.5 46 -7.4 18.7
11:25 1014 29.94 844 24.92 2.6 36.6 47 -7.7 18.2
11:30 1014 29.94 844 24.92 2.2 35.9 46 -8.4 16.9
11:35 1014 29.94 844 24.92 1.9 35.4 46 -8.7 16.4
11:40 1014 29.94 843 24.89 1.7 35.1 48 -8 17.5
11:45 1014 29.94 843 24.89 1.8 35.2 47 -8.3 17.1
11:50 1014 29.94 843 24.89 1.6 34.8 47 -8.5 16.7
11:55 1014 29.94 843 24.89 1.4 34.5 47 -8.6 16.5
12:00 1014 29.94 843 24.89 1.2 34.2 49 -8.5 16.8
12:05 1014 29.94 843 24.89 1.3 34.3 49 -8.2 17.2
12:10 1014 29.94 843 24.89 1.4 34.5 48 -8.4 16.8
12:15 1014 29.94 843 24.89 1.2 34.1 46 -9.1 15.7
12:20 1014 29.94 843 24.89 1.2 34.1 47 -8.8 16.1
12:25 1014 29.94 843 24.89 1.2 34.2 46 -9.2 15.5
12:30 1014 29.94 843 24.89 1.2 34.2 47 -9 15.8
12:35 1014 29.94 843 24.89 1.4 34.6 46 -8.9 15.9
12:40 1014 29.94 843 24.89 1.6 34.8 45 -9.1 15.6
12:45 1014 29.94 843 24.89 1.7 35.1 44 -9.3 15.2
12:50 1014 29.94 843 24.89 1.5 34.7 44 -9.4 15
12:55 1014 29.94 843 24.89 1.5 34.7 47 -8.7 16.3
13:00 1014 29.94 843 24.89 1.5 34.7 46 -8.8 16.1
13:05 1014 29.94 843 24.89 1.4 34.6 48 -8.5 16.7
13:10 1014 29.94 843 24.89 1.6 35 46 -8.7 16.4
13:15 1014 29.94 843 24.89 1.7 35.1 44 -9.2 15.5
13:20 1014 29.94 843 24.89 1.8 35.2 44 -9.3 15.2
13:25 1014 29.94 843 24.89 2 35.5 43 -9.4 15.1
13:30 1014 29.94 843 24.89 2.1 35.8 44 -9 15.8
13:35 1013 29.91 843 24.89 1.9 35.4 44 -9.3 15.3
13:40 1013 29.91 843 24.89 2.1 35.7 41 -9.7 14.5
13:45 1013 29.91 843 24.89 2.1 35.7 42 -9.6 14.6
13:50 1013 29.91 842 24.86 2 35.6 44 -8.9 16
13:55 1013 29.91 842 24.86 1.9 35.5 41 -10.1 13.8
14:00 1013 29.91 842 24.86 1.8 35.3 40 -10.4 13.4
14:05 1013 29.91 842 24.86 1.7 35.1 41 -10.2 13.7
14:10 1013 29.91 842 24.86 1.6 34.8 42 -10 13.9
14:15 1013 29.91 842 24.86 1.8 35.3 43 -9.4 15.1
14:20 1013 29.91 842 24.86 1.9 35.5 42 -9.6 14.7
14:25 1013 29.91 842 24.86 2.4 36.2 41 -9.6 14.7
14:30 1013 29.91 842 24.86 3 37.4 38 -10 14
14:35 1013 29.91 842 24.86 3 37.4 36 -10.7 12.8
14:40 1013 29.91 842 24.86 2.8 37 36 -10.7 12.7
14:45 1013 29.91 842 24.86 2.8 37 36 -11 12.2
14:50 1013 29.91 842 24.86 3 37.3 39 -9.8 14.4
14:55 1013 29.91 842 24.86 3.5 38.3 34 -10.8 12.5
15:00 1013 29.91 842 24.86 3.5 38.4 35 -10.7 12.8
15:05 1013 29.91 842 24.86 3.8 38.9 33 -11.1 11.9
15:10 1013 29.91 842 24.86 4.1 39.3 34 -10.6 13
15:15 1013 29.91 842 24.86 4.1 39.3 32 -11.2 11.8
15:20 1013 29.91 842 24.86 4 39.3 32 -11.1 12
15:25 1013 29.91 842 24.86 4 39.2 33 -11 12.1
15:30 1013 29.91 842 24.86 4 39.2 33 -10.9 12.4
15:35 1013 29.91 842 24.86 3.8 38.9 32 -11.4 11.5
15:40 1013 29.91 842 24.86 3.8 38.8 32 -11.6 11.2
15:45 1013 29.91 842 24.86 3.5 38.4 33 -11.2 11.9
15:50 1012 29.88 842 24.86 3.3 38 33 -11.3 11.6
15:55 1012 29.88 842 24.86 3 37.3 38 -10 14
16:00 1012 29.88 841 24.83 2.1 35.8 36 -11.6 11.2
16:05 1012 29.88 841 24.83 2.1 35.8 36 -11.4 11.4
16:10 1012 29.88 841 24.83 2.2 36 38 -10.7 12.7
16:15 1012 29.88 841 24.83 2.1 35.7 38 -10.7 12.8
16:20 1012 29.88 841 24.83 2.1 35.8 38 -10.6 12.9
16:25 1012 29.88 841 24.83 2.2 36 38 -10.6 12.9
16:30 1012 29.88 841 24.83 2 35.5 38 -11.1 12
16:35 1012 29.88 841 24.83 1.9 35.3 36 -11.7 10.9
16:40 1012 29.88 841 24.83 1.9 35.4 38 -11.1 12
16:45 1012 29.88 841 24.83 1.8 35.3 36 -11.6 11.2
16:50 1011 29.85 841 24.83 1.8 35.2 38 -11.2 11.9
16:55 1011 29.85 841 24.83 1.8 35.2 37 -11.5 11.2
17:00 1011 29.85 841 24.83 1.7 35.1 36 -11.7 10.9
17:05 1011 29.85 841 24.83 1.8 35.3 35 -12.2 10
17:10 1011 29.85 841 24.83 1.8 35.3 37 -11.5 11.4
17:15 1012 29.88 841 24.83 1.8 35.3 35 -12.3 9.9
17:20 1012 29.88 841 24.83 1.8 35.2 35 -12.2 10.1
17:25 1012 29.88 841 24.83 1.8 35.2 34 -12.4 9.6
17:30 1012 29.88 841 24.83 1.7 35 34 -12.4 9.6
17:35 1012 29.88 841 24.83 1.7 35 35 -12.3 9.8
17:40 1012 29.88 841 24.83 1.7 35 37 -11.6 11.2
17:45 1012 29.88 841 24.83 1.4 34.6 35 -12.3 9.8
17:50 1012 29.88 841 24.83 1.4 34.5 34 -13 8.7
17:55 1012 29.88 841 24.83 1.3 34.4 35 -12.5 9.5
18:00 1012 29.88 841 24.83 1.4 34.5 35 -12.5 9.5
18:05 1012 29.88 841 24.83 1.4 34.6 35 -12.3 9.9
18:10 1012 29.88 841 24.83 1.3 34.3 37 -12 10.5
18:15 1012 29.88 841 24.83 1.2 34.1 35 -12.7 9.2
18:20 1012 29.88 841 24.83 1.2 34.2 35 -12.5 9.5
18:25 1012 29.88 841 24.83 1.2 34.2 36 -12.4 9.8
18:30 1012 29.88 841 24.83 1.1 34 36 -12.4 9.7
18:35 1012 29.88 841 24.83 1.1 34 36 -12.3 9.9
18:40 1012 29.88 841 24.83 1.1 34 36 -12.5 9.6
18:45 1012 29.88 841 24.83 1.3 34.3 35 -12.5 9.5
18:50 1011 29.85 841 24.83 1.3 34.4 34 -12.8 9
18:55 1011 29.85 841 24.83 1.3 34.4 35 -12.5 9.6
19:00 1011 29.85 840 24.81 1.2 34.2 36 -12.3 9.8
19:05 1011 29.85 840 24.81 1.1 34.1 39 -11.5 11.4
19:10 1011 29.85 840 24.81 0.2 32.4 38 -12.4 9.6
19:15 1011 29.85 840 24.81 0.4 32.6 35 -13.4 7.9
19:20 1011 29.85 840 24.81 0.6 33.1 36 -12.9 8.8
19:25 1011 29.85 840 24.81 0.6 33 34 -13.6 7.6
19:30 1010 29.83 840 24.81 0.7 33.2 33 -13.7 7.3
19:35 1010 29.83 840 24.81 0.9 33.6 32 -14.1 6.6
19:40 1010 29.83 840 24.81 1.2 34.1 31 -14.1 6.6
19:45 1010 29.83 839 24.78 1.2 34.2 33 -13.5 7.8
19:50 1010 29.83 839 24.78 1.3 34.4 31 -14 6.8
19:55 1010 29.83 839 24.78 1.5 34.6 31 -14 6.8
20:00 1009 29.8 839 24.78 1.4 34.6 32 -13.7 7.3
20:05 1009 29.8 838 24.75 1.4 34.5 31 -14.2 6.5
20:10 1009 29.8 838 24.75 1.3 34.3 31 -13.9 7
20:15 1009 29.8 838 24.75 1.2 34.2 31 -14.3 6.2
20:20 1009 29.8 838 24.75 1.4 34.6 31 -13.9 6.9
20:25 1009 29.8 838 24.75 1.5 34.6 30 -14.3 6.3
20:30 1009 29.8 838 24.75 1.4 34.5 31 -14 6.8
20:35 1010 29.83 839 24.78 1.3 34.3 31 -14.1 6.5
20:40 1010 29.83 839 24.78 0.9 33.7 41 -10.9 12.4
20:45 1010 29.83 839 24.78 -0.1 31.8 42 -11.5 11.3
20:50 1010 29.83 839 24.78 -1 30.2 40 -12.9 8.7
20:55 1010 29.83 839 24.78 -0.6 30.9 39 -13.1 8.4
21:00 1010 29.83 839 24.78 -0.1 31.8 40 -12.3 9.9
21:05 1010 29.83 839 24.78 0.2 32.4 38 -12.5 9.5
21:10 1010 29.83 839 24.78 0.4 32.7 39 -12.2 10.1
21:15 1010 29.83 839 24.78 0.5 32.8 37 -12.7 9.1
21:20 1010 29.83 839 24.78 0.5 32.9 38 -12.2 10
21:25 1010 29.83 839 24.78 0.5 32.9 35 -13.1 8.4
21:30 1010 29.83 839 24.78 0.7 33.2 35 -13.1 8.4
21:35 1009 29.8 839 24.78 0.9 33.6 34 -13.4 7.9
21:40 1009 29.8 839 24.78 1.1 34 34 -13.2 8.2
21:45 1009 29.8 839 24.78 1 33.7 35 -13 8.5
21:50 1009 29.8 839 24.78 0.9 33.7 37 -12.3 9.8
21:55 1009 29.8 838 24.75 1 33.7 38 -11.9 10.6
22:00 1009 29.8 838 24.75 1 33.8 39 -11.4 11.5
22:05 1009 29.8 838 24.75 1 33.8 39 -11.5 11.3
22:10 1009 29.8 838 24.75 1 33.7 38 -12 10.4
22:15 1009 29.8 838 24.75 0.7 33.3 39 -11.7 10.9
22:20 1009 29.8 838 24.75 0.7 33.2 40 -11.5 11.3
22:25 1008 29.77 838 24.75 0.7 33.3 39 -11.6 11.2
22:30 1008 29.77 837 24.72 0.8 33.5 40 -11.3 11.7
22:35 1008 29.77 837 24.72 0.8 33.4 42 -10.9 12.4
22:40 1008 29.77 837 24.72 0.8 33.5 42 -10.6 12.8
22:45 1008 29.77 837 24.72 0.8 33.4 43 -10.4 13.3
22:50 1008 29.77 837 24.72 0.8 33.4 43 -10.4 13.3
22:55 1007 29.74 837 24.72 0.9 33.6 42 -10.6 12.8
23:00 1007 29.74 836 24.69 1.1 34 42 -10.4 13.3
23:05 1007 29.74 836 24.69 1.1 34 43 -10.2 13.6
23:10 1007 29.74 836 24.69 1 33.9 44 -9.9 14.3
23:15 1007 29.74 836 24.69 0.9 33.7 46 -9.5 14.8
23:20 1007 29.74 836 24.69 1 33.8 46 -9.4 15.1
23:25 1007 29.74 836 24.69 1 33.8 47 -9.1 15.6
23:30 1007 29.74 836 24.69 1 33.8 48 -8.8 16.2
23:35 1007 29.74 836 24.69 0.8 33.4 50 -8.6 16.6
23:40 1007 29.74 836 24.69 0.8 33.4 48 -8.9 15.9
23:45 1007 29.74 836 24.69 0.9 33.6 49 -8.8 16.2
23:50 1007 29.74 836 24.69 0.7 33.3 50 -8.6 16.6
23:55 1007 29.74 836 24.69 0.6 33.1 50 -8.7 16.4
24:00 1007 29.74 836 24.69 0.6 33.1 50 -8.7 16.3